Pagina principale
METAR-TAF:

METAR-TAF

Aeroporti :

Calais, Francia

latitudine: 50-57-39N, longitudine: 001-57-05E, altezza: 4 m

Osservazione

Il bollettino è stato emesso 24 minuti fa, alle 13:30 UTC
Vento 6 kt da nord, variando fra nord/nord-ovest e nord-est
Temperature 21°C
Umidità 46%
Pressione 1035 hPa
Visibilità 10 km o più
nessuna nube inferiore a 1500 m e nessun cumulonembo

METAR: LFAC 261330Z AUTO 36006KT 330V040 CAVOK 21/09 Q1035

Ora: 15:54 (13:54 UTC)


TAF: mancante

Osservazioni e previsioni meteorologiche di più di 4000 aeroporti (messaggi METAR e TAF).

Le stazioni disponibili sono rappresentate dai dischi gialli e rossi sulla carta.

Puntare il mouse per vedere il nome della stazione.

Clicca sopra per visualizzare le osservazioni e previsioni meteorologiche.

Per cambiare la mappa : fare clic sui pulsanti verdi con una croce nera per ingrandire, il pulsante verde con un trattino per diminuire, o sulla freccia verde per le mappe adiacenti.


METAR-TAF: